sensor_id;sensor_type;location;lat;lon;timestamp;P1;durP1;ratioP1;P2;durP2;ratioP2
32800;SDS011;40572;45.552;12.072;2022-12-10T00:00:18;9.17;;;8.30;;
32800;SDS011;40572;45.552;12.072;2022-12-10T00:02:44;10.23;;;9.23;;
32800;SDS011;40572;45.552;12.072;2022-12-10T00:05:10;11.00;;;9.90;;
32800;SDS011;40572;45.552;12.072;2022-12-10T00:07:36;10.00;;;8.73;;
32800;SDS011;40572;45.552;12.072;2022-12-10T00:10:02;9.87;;;8.87;;
32800;SDS011;40572;45.552;12.072;2022-12-10T00:12:28;9.70;;;8.48;;
32800;SDS011;40572;45.552;12.072;2022-12-10T00:17:20;9.20;;;8.27;;
32800;SDS011;40572;45.552;12.072;2022-12-10T00:19:46;9.80;;;8.80;;
32800;SDS011;40572;45.552;12.072;2022-12-10T00:22:13;11.77;;;9.60;;
32800;SDS011;40572;45.552;12.072;2022-12-10T00:24:39;10.23;;;9.13;;
32800;SDS011;40572;45.552;12.072;2022-12-10T00:27:05;12.97;;;10.07;;
32800;SDS011;40572;45.552;12.072;2022-12-10T00:29:32;10.27;;;8.83;;
32800;SDS011;40572;45.552;12.072;2022-12-10T00:31:58;10.27;;;9.17;;
32800;SDS011;40572;45.552;12.072;2022-12-10T00:34:24;9.67;;;8.53;;
32800;SDS011;40572;45.552;12.072;2022-12-10T00:36:51;11.17;;;9.30;;
32800;SDS011;40572;45.552;12.072;2022-12-10T00:39:18;11.00;;;9.73;;
32800;SDS011;40572;45.552;12.072;2022-12-10T00:41:44;11.33;;;9.83;;
32800;SDS011;40572;45.552;12.072;2022-12-10T00:44:11;10.63;;;9.10;;
32800;SDS011;40572;45.552;12.072;2022-12-10T00:46:37;11.10;;;9.58;;
32800;SDS011;40572;45.552;12.072;2022-12-10T00:49:03;11.10;;;10.00;;
32800;SDS011;40572;45.552;12.072;2022-12-10T00:51:30;11.97;;;9.67;;
32800;SDS011;40572;45.552;12.072;2022-12-10T00:53:56;12.20;;;10.43;;
32800;SDS011;40572;45.552;12.072;2022-12-10T00:56:25;12.73;;;10.97;;
32800;SDS011;40572;45.552;12.072;2022-12-10T00:58:51;13.48;;;11.03;;
32800;SDS011;40572;45.552;12.072;2022-12-10T01:03:45;11.57;;;10.37;;
32800;SDS011;40572;45.552;12.072;2022-12-10T01:08:42;11.10;;;9.87;;
32800;SDS011;40572;45.552;12.072;2022-12-10T01:11:09;13.10;;;11.07;;
32800;SDS011;40572;45.552;12.072;2022-12-10T01:13:35;14.73;;;11.23;;
32800;SDS011;40572;45.552;12.072;2022-12-10T01:16:02;14.78;;;12.30;;
32800;SDS011;40572;45.552;12.072;2022-12-10T01:18:28;13.67;;;11.53;;
32800;SDS011;40572;45.552;12.072;2022-12-10T01:20:54;14.45;;;11.05;;
32800;SDS011;40572;45.552;12.072;2022-12-10T01:23:20;15.65;;;13.00;;
32800;SDS011;40572;45.552;12.072;2022-12-10T01:25:46;14.78;;;11.85;;
32800;SDS011;40572;45.552;12.072;2022-12-10T01:28:12;14.95;;;12.35;;
32800;SDS011;40572;45.552;12.072;2022-12-10T01:30:38;14.53;;;12.43;;
32800;SDS011;40572;45.552;12.072;2022-12-10T01:33:04;14.43;;;11.80;;
32800;SDS011;40572;45.552;12.072;2022-12-10T01:35:35;13.80;;;11.87;;
32800;SDS011;40572;45.552;12.072;2022-12-10T01:38:00;14.57;;;11.67;;
32800;SDS011;40572;45.552;12.072;2022-12-10T01:40:27;14.50;;;12.53;;
32800;SDS011;40572;45.552;12.072;2022-12-10T01:42:53;13.95;;;12.07;;
32800;SDS011;40572;45.552;12.072;2022-12-10T01:45:19;14.80;;;12.20;;
32800;SDS011;40572;45.552;12.072;2022-12-10T01:47:45;15.35;;;11.93;;
32800;SDS011;40572;45.552;12.072;2022-12-10T01:50:11;13.98;;;11.88;;
32800;SDS011;40572;45.552;12.072;2022-12-10T01:52:37;15.45;;;11.68;;
32800;SDS011;40572;45.552;12.072;2022-12-10T01:57:29;13.60;;;11.63;;
32800;SDS011;40572;45.552;12.072;2022-12-10T01:59:58;15.75;;;12.53;;
32800;SDS011;40572;45.552;12.072;2022-12-10T02:05:12;15.93;;;12.43;;
32800;SDS011;40572;45.552;12.072;2022-12-10T02:10:13;15.40;;;11.25;;
32800;SDS011;40572;45.552;12.072;2022-12-10T02:12:49;15.87;;;13.30;;
32800;SDS011;40572;45.552;12.072;2022-12-10T02:22:38;17.27;;;13.20;;
32800;SDS011;40572;45.552;12.072;2022-12-10T02:25:04;18.33;;;13.70;;
32800;SDS011;40572;45.552;12.072;2022-12-10T02:27:42;19.93;;;13.33;;
32800;SDS011;40572;45.552;12.072;2022-12-10T02:30:08;18.03;;;14.37;;
32800;SDS011;40572;45.552;12.072;2022-12-10T02:32:37;18.37;;;14.20;;
32800;SDS011;40572;45.552;12.072;2022-12-10T02:35:06;19.77;;;13.97;;
32800;SDS011;40572;45.552;12.072;2022-12-10T02:37:44;20.07;;;14.37;;
32800;SDS011;40572;45.552;12.072;2022-12-10T02:40:02;18.77;;;13.57;;
32800;SDS011;40572;45.552;12.072;2022-12-10T02:42:29;19.23;;;14.00;;
32800;SDS011;40572;45.552;12.072;2022-12-10T02:44:56;18.33;;;13.53;;
32800;SDS011;40572;45.552;12.072;2022-12-10T02:47:24;18.13;;;14.30;;
32800;SDS011;40572;45.552;12.072;2022-12-10T02:49:52;19.20;;;14.50;;
32800;SDS011;40572;45.552;12.072;2022-12-10T02:52:19;20.60;;;15.33;;
32800;SDS011;40572;45.552;12.072;2022-12-10T02:54:47;21.23;;;16.00;;
32800;SDS011;40572;45.552;12.072;2022-12-10T03:03:15;20.67;;;14.40;;
32800;SDS011;40572;45.552;12.072;2022-12-10T03:07:35;21.13;;;15.07;;
32800;SDS011;40572;45.552;12.072;2022-12-10T03:09:56;20.67;;;15.07;;
32800;SDS011;40572;45.552;12.072;2022-12-10T03:12:30;20.83;;;14.83;;
32800;SDS011;40572;45.552;12.072;2022-12-10T03:14:54;20.73;;;15.03;;
32800;SDS011;40572;45.552;12.072;2022-12-10T03:17:21;19.80;;;14.47;;
32800;SDS011;40572;45.552;12.072;2022-12-10T03:19:48;19.02;;;14.38;;
32800;SDS011;40572;45.552;12.072;2022-12-10T03:22:15;23.63;;;15.70;;
32800;SDS011;40572;45.552;12.072;2022-12-10T03:24:41;23.90;;;17.00;;
32800;SDS011;40572;45.552;12.072;2022-12-10T03:27:08;26.00;;;17.53;;
32800;SDS011;40572;45.552;12.072;2022-12-10T03:29:39;22.57;;;16.30;;
32800;SDS011;40572;45.552;12.072;2022-12-10T03:32:05;21.63;;;15.57;;
32800;SDS011;40572;45.552;12.072;2022-12-10T03:34:31;22.02;;;15.83;;
32800;SDS011;40572;45.552;12.072;2022-12-10T03:36:58;22.05;;;15.40;;
32800;SDS011;40572;45.552;12.072;2022-12-10T03:39:24;21.67;;;16.30;;
32800;SDS011;40572;45.552;12.072;2022-12-10T03:41:51;21.83;;;15.83;;
32800;SDS011;40572;45.552;12.072;2022-12-10T03:44:27;20.70;;;14.80;;
32800;SDS011;40572;45.552;12.072;2022-12-10T03:46:53;23.53;;;15.77;;
32800;SDS011;40572;45.552;12.072;2022-12-10T03:49:19;22.73;;;16.27;;
32800;SDS011;40572;45.552;12.072;2022-12-10T03:51:45;22.63;;;15.80;;
32800;SDS011;40572;45.552;12.072;2022-12-10T03:54:12;24.37;;;16.40;;
32800;SDS011;40572;45.552;12.072;2022-12-10T03:56:38;22.87;;;16.50;;
32800;SDS011;40572;45.552;12.072;2022-12-10T03:59:04;21.33;;;15.30;;
32800;SDS011;40572;45.552;12.072;2022-12-10T04:01:30;23.52;;;16.02;;
32800;SDS011;40572;45.552;12.072;2022-12-10T04:03:56;22.95;;;16.12;;
32800;SDS011;40572;45.552;12.072;2022-12-10T04:06:23;21.55;;;15.35;;
32800;SDS011;40572;45.552;12.072;2022-12-10T04:08:49;25.37;;;17.25;;
32800;SDS011;40572;45.552;12.072;2022-12-10T04:11:15;20.93;;;15.13;;
32800;SDS011;40572;45.552;12.072;2022-12-10T04:13:41;24.03;;;16.37;;
32800;SDS011;40572;45.552;12.072;2022-12-10T04:16:27;25.17;;;16.13;;
32800;SDS011;40572;45.552;12.072;2022-12-10T04:19:00;23.80;;;16.63;;
32800;SDS011;40572;45.552;12.072;2022-12-10T04:21:27;23.67;;;16.47;;
32800;SDS011;40572;45.552;12.072;2022-12-10T04:24:04;25.80;;;17.50;;
32800;SDS011;40572;45.552;12.072;2022-12-10T04:26:49;25.83;;;17.00;;
32800;SDS011;40572;45.552;12.072;2022-12-10T04:29:18;24.13;;;16.40;;
32800;SDS011;40572;45.552;12.072;2022-12-10T04:31:44;23.73;;;15.90;;
32800;SDS011;40572;45.552;12.072;2022-12-10T04:34:11;24.72;;;16.65;;
32800;SDS011;40572;45.552;12.072;2022-12-10T04:36:37;23.80;;;16.42;;
32800;SDS011;40572;45.552;12.072;2022-12-10T04:39:03;25.40;;;16.45;;
32800;SDS011;40572;45.552;12.072;2022-12-10T04:41:29;25.30;;;17.25;;
32800;SDS011;40572;45.552;12.072;2022-12-10T04:43:55;25.17;;;16.47;;
32800;SDS011;40572;45.552;12.072;2022-12-10T04:46:21;25.08;;;16.42;;
32800;SDS011;40572;45.552;12.072;2022-12-10T04:51:13;25.77;;;16.40;;
32800;SDS011;40572;45.552;12.072;2022-12-10T04:53:39;25.73;;;17.33;;
32800;SDS011;40572;45.552;12.072;2022-12-10T04:56:05;24.20;;;17.37;;
32800;SDS011;40572;45.552;12.072;2022-12-10T04:58:32;24.35;;;16.62;;
32800;SDS011;40572;45.552;12.072;2022-12-10T05:01:02;26.30;;;17.55;;
32800;SDS011;40572;45.552;12.072;2022-12-10T05:03:28;24.50;;;17.30;;
32800;SDS011;40572;45.552;12.072;2022-12-10T05:05:54;23.83;;;16.35;;
32800;SDS011;40572;45.552;12.072;2022-12-10T05:08:20;25.08;;;16.95;;
32800;SDS011;40572;45.552;12.072;2022-12-10T05:10:46;26.70;;;17.57;;
32800;SDS011;40572;45.552;12.072;2022-12-10T05:13:12;25.27;;;17.53;;
32800;SDS011;40572;45.552;12.072;2022-12-10T05:15:38;23.45;;;16.57;;
32800;SDS011;40572;45.552;12.072;2022-12-10T05:18:05;24.57;;;16.70;;
32800;SDS011;40572;45.552;12.072;2022-12-10T05:22:57;22.27;;;15.83;;
32800;SDS011;40572;45.552;12.072;2022-12-10T05:25:41;23.10;;;16.23;;
32800;SDS011;40572;45.552;12.072;2022-12-10T05:28:12;25.70;;;16.67;;
32800;SDS011;40572;45.552;12.072;2022-12-10T05:30:38;25.90;;;17.27;;
32800;SDS011;40572;45.552;12.072;2022-12-10T05:33:04;25.88;;;17.20;;
32800;SDS011;40572;45.552;12.072;2022-12-10T05:35:31;27.37;;;17.82;;
32800;SDS011;40572;45.552;12.072;2022-12-10T05:37:57;23.87;;;16.82;;
32800;SDS011;40572;45.552;12.072;2022-12-10T05:40:23;23.33;;;16.67;;
32800;SDS011;40572;45.552;12.072;2022-12-10T05:42:49;23.75;;;16.85;;
32800;SDS011;40572;45.552;12.072;2022-12-10T05:45:15;26.63;;;18.07;;
32800;SDS011;40572;45.552;12.072;2022-12-10T05:47:41;24.72;;;17.48;;
32800;SDS011;40572;45.552;12.072;2022-12-10T05:50:07;26.13;;;17.93;;
32800;SDS011;40572;45.552;12.072;2022-12-10T05:52:33;23.67;;;16.50;;
32800;SDS011;40572;45.552;12.072;2022-12-10T05:54:59;25.73;;;16.53;;
32800;SDS011;40572;45.552;12.072;2022-12-10T05:57:25;24.20;;;16.77;;
32800;SDS011;40572;45.552;12.072;2022-12-10T05:59:52;25.03;;;17.37;;
32800;SDS011;40572;45.552;12.072;2022-12-10T06:02:18;26.83;;;18.23;;
32800;SDS011;40572;45.552;12.072;2022-12-10T06:04:44;25.43;;;16.57;;
32800;SDS011;40572;45.552;12.072;2022-12-10T06:07:10;23.98;;;17.15;;
32800;SDS011;40572;45.552;12.072;2022-12-10T06:09:36;26.97;;;18.27;;
32800;SDS011;40572;45.552;12.072;2022-12-10T06:12:02;27.57;;;17.17;;
32800;SDS011;40572;45.552;12.072;2022-12-10T06:14:28;25.70;;;17.37;;
32800;SDS011;40572;45.552;12.072;2022-12-10T06:16:55;22.90;;;16.30;;
32800;SDS011;40572;45.552;12.072;2022-12-10T06:19:21;24.63;;;17.13;;
32800;SDS011;40572;45.552;12.072;2022-12-10T06:21:47;27.70;;;16.88;;
32800;SDS011;40572;45.552;12.072;2022-12-10T06:24:13;23.83;;;16.70;;
32800;SDS011;40572;45.552;12.072;2022-12-10T06:26:39;25.12;;;16.52;;
32800;SDS011;40572;45.552;12.072;2022-12-10T06:29:05;23.15;;;16.23;;
32800;SDS011;40572;45.552;12.072;2022-12-10T06:31:31;29.80;;;18.63;;
32800;SDS011;40572;45.552;12.072;2022-12-10T06:33:57;24.05;;;16.25;;
32800;SDS011;40572;45.552;12.072;2022-12-10T06:38:49;28.63;;;16.63;;
32800;SDS011;40572;45.552;12.072;2022-12-10T06:41:15;27.53;;;16.67;;
32800;SDS011;40572;45.552;12.072;2022-12-10T06:43:42;30.00;;;17.67;;
32800;SDS011;40572;45.552;12.072;2022-12-10T06:46:14;28.30;;;16.80;;
32800;SDS011;40572;45.552;12.072;2022-12-10T06:48:36;27.50;;;16.80;;
32800;SDS011;40572;45.552;12.072;2022-12-10T06:51:03;29.18;;;17.55;;
32800;SDS011;40572;45.552;12.072;2022-12-10T06:53:29;30.60;;;18.13;;
32800;SDS011;40572;45.552;12.072;2022-12-10T06:55:57;30.27;;;17.07;;
32800;SDS011;40572;45.552;12.072;2022-12-10T06:58:24;32.17;;;18.10;;
32800;SDS011;40572;45.552;12.072;2022-12-10T07:00:49;27.73;;;16.35;;
32800;SDS011;40572;45.552;12.072;2022-12-10T07:03:15;36.70;;;18.00;;
32800;SDS011;40572;45.552;12.072;2022-12-10T07:05:41;29.23;;;16.67;;
32800;SDS011;40572;45.552;12.072;2022-12-10T07:08:07;31.97;;;16.60;;
32800;SDS011;40572;45.552;12.072;2022-12-10T07:10:33;30.37;;;17.47;;
32800;SDS011;40572;45.552;12.072;2022-12-10T07:12:59;31.30;;;16.80;;
32800;SDS011;40572;45.552;12.072;2022-12-10T07:15:26;34.33;;;17.40;;
32800;SDS011;40572;45.552;12.072;2022-12-10T07:17:54;31.05;;;16.87;;
32800;SDS011;40572;45.552;12.072;2022-12-10T07:20:20;32.08;;;16.75;;
32800;SDS011;40572;45.552;12.072;2022-12-10T07:22:46;29.23;;;17.30;;
32800;SDS011;40572;45.552;12.072;2022-12-10T07:25:12;27.10;;;15.13;;
32800;SDS011;40572;45.552;12.072;2022-12-10T07:27:38;28.53;;;15.83;;
32800;SDS011;40572;45.552;12.072;2022-12-10T07:30:04;31.27;;;16.90;;
32800;SDS011;40572;45.552;12.072;2022-12-10T07:32:30;32.65;;;17.32;;
32800;SDS011;40572;45.552;12.072;2022-12-10T07:34:57;34.40;;;17.97;;
32800;SDS011;40572;45.552;12.072;2022-12-10T07:37:22;34.63;;;18.10;;
32800;SDS011;40572;45.552;12.072;2022-12-10T07:39:49;31.73;;;17.33;;
32800;SDS011;40572;45.552;12.072;2022-12-10T07:42:15;32.73;;;17.35;;
32800;SDS011;40572;45.552;12.072;2022-12-10T07:44:41;33.48;;;17.07;;
32800;SDS011;40572;45.552;12.072;2022-12-10T07:47:07;33.97;;;18.97;;
32800;SDS011;40572;45.552;12.072;2022-12-10T07:51:59;36.23;;;19.07;;
32800;SDS011;40572;45.552;12.072;2022-12-10T07:54:25;36.23;;;18.00;;
32800;SDS011;40572;45.552;12.072;2022-12-10T07:56:51;37.33;;;19.35;;
32800;SDS011;40572;45.552;12.072;2022-12-10T07:59:18;37.80;;;20.77;;
32800;SDS011;40572;45.552;12.072;2022-12-10T08:01:44;40.70;;;21.37;;
32800;SDS011;40572;45.552;12.072;2022-12-10T08:04:10;42.77;;;21.57;;
32800;SDS011;40572;45.552;12.072;2022-12-10T08:06:36;38.53;;;21.10;;
32800;SDS011;40572;45.552;12.072;2022-12-10T08:09:03;39.27;;;21.07;;
32800;SDS011;40572;45.552;12.072;2022-12-10T08:11:29;40.73;;;20.60;;
32800;SDS011;40572;45.552;12.072;2022-12-10T08:13:56;36.57;;;19.57;;
32800;SDS011;40572;45.552;12.072;2022-12-10T08:16:23;40.30;;;20.20;;
32800;SDS011;40572;45.552;12.072;2022-12-10T08:18:51;37.33;;;19.85;;
32800;SDS011;40572;45.552;12.072;2022-12-10T08:21:18;35.95;;;19.12;;
32800;SDS011;40572;45.552;12.072;2022-12-10T08:23:45;38.90;;;20.57;;
32800;SDS011;40572;45.552;12.072;2022-12-10T08:26:12;36.25;;;19.65;;
32800;SDS011;40572;45.552;12.072;2022-12-10T08:28:38;40.37;;;22.00;;
32800;SDS011;40572;45.552;12.072;2022-12-10T08:33:32;33.40;;;17.93;;
32800;SDS011;40572;45.552;12.072;2022-12-10T08:35:58;37.87;;;19.10;;
32800;SDS011;40572;45.552;12.072;2022-12-10T08:38:28;34.53;;;17.73;;
32800;SDS011;40572;45.552;12.072;2022-12-10T08:40:56;31.87;;;17.23;;
32800;SDS011;40572;45.552;12.072;2022-12-10T08:43:22;36.93;;;19.10;;
32800;SDS011;40572;45.552;12.072;2022-12-10T08:45:48;35.58;;;18.57;;
32800;SDS011;40572;45.552;12.072;2022-12-10T08:48:14;34.03;;;18.32;;
32800;SDS011;40572;45.552;12.072;2022-12-10T08:50:40;36.45;;;20.65;;
32800;SDS011;40572;45.552;12.072;2022-12-10T08:53:07;33.67;;;19.30;;
32800;SDS011;40572;45.552;12.072;2022-12-10T08:55:33;34.45;;;19.00;;
32800;SDS011;40572;45.552;12.072;2022-12-10T08:58:01;36.23;;;19.23;;
32800;SDS011;40572;45.552;12.072;2022-12-10T09:00:27;29.87;;;18.70;;
32800;SDS011;40572;45.552;12.072;2022-12-10T09:02:54;35.33;;;18.53;;
32800;SDS011;40572;45.552;12.072;2022-12-10T09:05:21;33.33;;;18.13;;
32800;SDS011;40572;45.552;12.072;2022-12-10T09:07:47;27.97;;;16.90;;
32800;SDS011;40572;45.552;12.072;2022-12-10T09:10:13;29.53;;;16.60;;
32800;SDS011;40572;45.552;12.072;2022-12-10T09:12:40;23.42;;;15.05;;
32800;SDS011;40572;45.552;12.072;2022-12-10T09:15:08;28.10;;;17.30;;
32800;SDS011;40572;45.552;12.072;2022-12-10T09:17:34;25.73;;;16.47;;
32800;SDS011;40572;45.552;12.072;2022-12-10T09:20:00;21.57;;;14.73;;
32800;SDS011;40572;45.552;12.072;2022-12-10T09:22:27;22.62;;;14.87;;
32800;SDS011;40572;45.552;12.072;2022-12-10T09:24:54;24.17;;;14.87;;
32800;SDS011;40572;45.552;12.072;2022-12-10T09:27:20;23.67;;;15.40;;
32800;SDS011;40572;45.552;12.072;2022-12-10T09:29:47;21.80;;;15.00;;
32800;SDS011;40572;45.552;12.072;2022-12-10T09:34:39;18.67;;;12.77;;
32800;SDS011;40572;45.552;12.072;2022-12-10T09:37:05;17.33;;;11.83;;
32800;SDS011;40572;45.552;12.072;2022-12-10T09:39:31;16.65;;;11.35;;
32800;SDS011;40572;45.552;12.072;2022-12-10T09:42:04;16.37;;;12.53;;
32800;SDS011;40572;45.552;12.072;2022-12-10T09:44:38;17.37;;;12.57;;
32800;SDS011;40572;45.552;12.072;2022-12-10T09:46:59;16.93;;;12.13;;
32800;SDS011;40572;45.552;12.072;2022-12-10T09:52:09;15.73;;;12.40;;
32800;SDS011;40572;45.552;12.072;2022-12-10T09:54:35;17.43;;;12.40;;
32800;SDS011;40572;45.552;12.072;2022-12-10T09:57:01;15.97;;;12.03;;
32800;SDS011;40572;45.552;12.072;2022-12-10T09:59:30;15.73;;;12.00;;
32800;SDS011;40572;45.552;12.072;2022-12-10T10:02:11;16.77;;;12.23;;
32800;SDS011;40572;45.552;12.072;2022-12-10T10:04:28;17.77;;;13.60;;
32800;SDS011;40572;45.552;12.072;2022-12-10T10:06:54;15.83;;;11.97;;
32800;SDS011;40572;45.552;12.072;2022-12-10T10:11:46;17.30;;;13.37;;
32800;SDS011;40572;45.552;12.072;2022-12-10T10:14:13;16.35;;;11.63;;
32800;SDS011;40572;45.552;12.072;2022-12-10T10:16:44;24.50;;;18.67;;
32800;SDS011;40572;45.552;12.072;2022-12-10T10:19:12;19.63;;;16.30;;
32800;SDS011;40572;45.552;12.072;2022-12-10T10:21:46;18.33;;;13.83;;
32800;SDS011;40572;45.552;12.072;2022-12-10T10:24:14;19.07;;;14.60;;
32800;SDS011;40572;45.552;12.072;2022-12-10T10:26:36;21.63;;;15.20;;
32800;SDS011;40572;45.552;12.072;2022-12-10T10:29:04;27.50;;;21.15;;
32800;SDS011;40572;45.552;12.072;2022-12-10T10:31:31;25.23;;;18.37;;
32800;SDS011;40572;45.552;12.072;2022-12-10T10:34:03;23.53;;;17.60;;
32800;SDS011;40572;45.552;12.072;2022-12-10T10:36:26;26.83;;;19.93;;
32800;SDS011;40572;45.552;12.072;2022-12-10T10:38:53;26.90;;;19.10;;
32800;SDS011;40572;45.552;12.072;2022-12-10T10:41:19;44.77;;;33.67;;
32800;SDS011;40572;45.552;12.072;2022-12-10T10:43:45;28.17;;;19.47;;
32800;SDS011;40572;45.552;12.072;2022-12-10T10:46:14;23.90;;;16.73;;
32800;SDS011;40572;45.552;12.072;2022-12-10T10:48:40;22.27;;;16.63;;
32800;SDS011;40572;45.552;12.072;2022-12-10T10:53:54;22.80;;;16.63;;
32800;SDS011;40572;45.552;12.072;2022-12-10T10:58:53;24.10;;;17.00;;
32800;SDS011;40572;45.552;12.072;2022-12-10T11:01:19;25.70;;;15.98;;
32800;SDS011;40572;45.552;12.072;2022-12-10T11:03:46;24.47;;;16.67;;
32800;SDS011;40572;45.552;12.072;2022-12-10T11:06:13;25.82;;;15.90;;
32800;SDS011;40572;45.552;12.072;2022-12-10T11:08:39;21.93;;;14.80;;
32800;SDS011;40572;45.552;12.072;2022-12-10T11:11:57;22.23;;;14.40;;
32800;SDS011;40572;45.552;12.072;2022-12-10T11:13:39;21.33;;;14.00;;
32800;SDS011;40572;45.552;12.072;2022-12-10T11:16:16;25.17;;;14.70;;
32800;SDS011;40572;45.552;12.072;2022-12-10T11:18:38;23.12;;;14.60;;
32800;SDS011;40572;45.552;12.072;2022-12-10T11:23:43;23.33;;;14.23;;
32800;SDS011;40572;45.552;12.072;2022-12-10T11:26:18;23.00;;;15.83;;
32800;SDS011;40572;45.552;12.072;2022-12-10T11:51:57;21.07;;;15.07;;
32800;SDS011;40572;45.552;12.072;2022-12-10T11:54:30;19.67;;;14.87;;
32800;SDS011;40572;45.552;12.072;2022-12-10T11:57:01;19.25;;;14.25;;
32800;SDS011;40572;45.552;12.072;2022-12-10T12:07:22;17.43;;;13.37;;
32800;SDS011;40572;45.552;12.072;2022-12-10T12:12:23;18.30;;;12.27;;
32800;SDS011;40572;45.552;12.072;2022-12-10T12:14:48;18.23;;;12.50;;
32800;SDS011;40572;45.552;12.072;2022-12-10T12:17:19;18.40;;;13.73;;
32800;SDS011;40572;45.552;12.072;2022-12-10T12:19:45;16.97;;;12.33;;
32800;SDS011;40572;45.552;12.072;2022-12-10T12:22:16;19.25;;;13.08;;
32800;SDS011;40572;45.552;12.072;2022-12-10T12:24:43;19.17;;;13.50;;
32800;SDS011;40572;45.552;12.072;2022-12-10T12:29:44;17.07;;;12.47;;
32800;SDS011;40572;45.552;12.072;2022-12-10T12:37:12;20.30;;;13.33;;
32800;SDS011;40572;45.552;12.072;2022-12-10T12:39:47;18.37;;;12.70;;
32800;SDS011;40572;45.552;12.072;2022-12-10T12:42:16;18.63;;;12.97;;
32800;SDS011;40572;45.552;12.072;2022-12-10T12:49:53;17.70;;;11.63;;
32800;SDS011;40572;45.552;12.072;2022-12-10T12:52:29;19.37;;;11.63;;
32800;SDS011;40572;45.552;12.072;2022-12-10T12:54:56;18.30;;;11.93;;
32800;SDS011;40572;45.552;12.072;2022-12-10T12:57:38;17.27;;;11.43;;
32800;SDS011;40572;45.552;12.072;2022-12-10T13:00:04;17.90;;;11.38;;
32800;SDS011;40572;45.552;12.072;2022-12-10T13:05:17;17.83;;;11.17;;
32800;SDS011;40572;45.552;12.072;2022-12-10T13:07:42;15.50;;;10.60;;
32800;SDS011;40572;45.552;12.072;2022-12-10T13:10:22;16.40;;;11.35;;
32800;SDS011;40572;45.552;12.072;2022-12-10T13:12:49;19.17;;;11.30;;
32800;SDS011;40572;45.552;12.072;2022-12-10T13:22:55;18.30;;;12.60;;
32800;SDS011;40572;45.552;12.072;2022-12-10T13:25:36;17.37;;;12.10;;
32800;SDS011;40572;45.552;12.072;2022-12-10T13:27:57;18.23;;;12.60;;
32800;SDS011;40572;45.552;12.072;2022-12-10T13:30:31;18.10;;;11.90;;
32800;SDS011;40572;45.552;12.072;2022-12-10T13:33:05;18.80;;;11.70;;
32800;SDS011;40572;45.552;12.072;2022-12-10T13:35:31;15.67;;;11.60;;
32800;SDS011;40572;45.552;12.072;2022-12-10T13:38:03;17.07;;;11.75;;
32800;SDS011;40572;45.552;12.072;2022-12-10T13:46:20;17.43;;;12.20;;
32800;SDS011;40572;45.552;12.072;2022-12-10T13:48:30;20.07;;;12.37;;
32800;SDS011;40572;45.552;12.072;2022-12-10T13:53:47;16.53;;;11.33;;
32800;SDS011;40572;45.552;12.072;2022-12-10T14:04:18;15.30;;;11.00;;
32800;SDS011;40572;45.552;12.072;2022-12-10T14:06:43;15.90;;;11.03;;
32800;SDS011;40572;45.552;12.072;2022-12-10T14:09:19;18.80;;;12.73;;
32800;SDS011;40572;45.552;12.072;2022-12-10T14:11:49;17.83;;;12.83;;
32800;SDS011;40572;45.552;12.072;2022-12-10T14:14:20;16.90;;;11.73;;
32800;SDS011;40572;45.552;12.072;2022-12-10T14:16:43;16.85;;;12.05;;
32800;SDS011;40572;45.552;12.072;2022-12-10T14:19:11;17.73;;;12.43;;
32800;SDS011;40572;45.552;12.072;2022-12-10T14:21:37;16.80;;;12.63;;
32800;SDS011;40572;45.552;12.072;2022-12-10T14:24:04;18.43;;;12.87;;
32800;SDS011;40572;45.552;12.072;2022-12-10T14:26:31;16.40;;;12.67;;
32800;SDS011;40572;45.552;12.072;2022-12-10T14:29:11;16.93;;;12.28;;
32800;SDS011;40572;45.552;12.072;2022-12-10T14:31:30;18.83;;;12.90;;
32800;SDS011;40572;45.552;12.072;2022-12-10T14:33:58;16.93;;;12.60;;
32800;SDS011;40572;45.552;12.072;2022-12-10T14:36:29;15.57;;;12.07;;
32800;SDS011;40572;45.552;12.072;2022-12-10T14:38:52;15.47;;;11.43;;
32800;SDS011;40572;45.552;12.072;2022-12-10T14:41:20;16.35;;;11.88;;
32800;SDS011;40572;45.552;12.072;2022-12-10T14:43:46;16.00;;;10.97;;
32800;SDS011;40572;45.552;12.072;2022-12-10T14:46:14;16.10;;;11.07;;
32800;SDS011;40572;45.552;12.072;2022-12-10T14:48:41;14.30;;;10.93;;
32800;SDS011;40572;45.552;12.072;2022-12-10T14:51:13;16.07;;;12.03;;
32800;SDS011;40572;45.552;12.072;2022-12-10T14:53:39;14.50;;;11.17;;
32800;SDS011;40572;45.552;12.072;2022-12-10T14:56:06;16.75;;;11.48;;
32800;SDS011;40572;45.552;12.072;2022-12-10T14:58:46;15.03;;;11.57;;
32800;SDS011;40572;45.552;12.072;2022-12-10T15:01:12;14.33;;;11.17;;
32800;SDS011;40572;45.552;12.072;2022-12-10T15:03:39;17.23;;;10.97;;
32800;SDS011;40572;45.552;12.072;2022-12-10T15:06:07;14.47;;;11.03;;
32800;SDS011;40572;45.552;12.072;2022-12-10T15:08:34;16.50;;;12.57;;
32800;SDS011;40572;45.552;12.072;2022-12-10T15:11:01;19.37;;;13.93;;
32800;SDS011;40572;45.552;12.072;2022-12-10T15:15:55;19.83;;;15.33;;
32800;SDS011;40572;45.552;12.072;2022-12-10T15:18:26;18.40;;;14.45;;
32800;SDS011;40572;45.552;12.072;2022-12-10T15:20:52;19.13;;;14.67;;
32800;SDS011;40572;45.552;12.072;2022-12-10T15:26:09;20.07;;;14.53;;
32800;SDS011;40572;45.552;12.072;2022-12-10T15:33:46;27.37;;;21.97;;
32800;SDS011;40572;45.552;12.072;2022-12-10T15:39:01;24.50;;;18.37;;
32800;SDS011;40572;45.552;12.072;2022-12-10T15:41:33;25.73;;;21.13;;
32800;SDS011;40572;45.552;12.072;2022-12-10T15:44:06;24.52;;;18.15;;
32800;SDS011;40572;45.552;12.072;2022-12-10T15:46:33;21.73;;;16.77;;
32800;SDS011;40572;45.552;12.072;2022-12-10T15:48:59;23.87;;;19.80;;
32800;SDS011;40572;45.552;12.072;2022-12-10T15:51:25;21.62;;;18.77;;
32800;SDS011;40572;45.552;12.072;2022-12-10T15:53:51;21.25;;;16.45;;
32800;SDS011;40572;45.552;12.072;2022-12-10T15:56:17;19.55;;;15.03;;
32800;SDS011;40572;45.552;12.072;2022-12-10T15:58:43;18.70;;;13.93;;
32800;SDS011;40572;45.552;12.072;2022-12-10T16:01:11;21.00;;;16.23;;
32800;SDS011;40572;45.552;12.072;2022-12-10T16:03:37;20.32;;;16.80;;
32800;SDS011;40572;45.552;12.072;2022-12-10T16:06:05;24.00;;;16.67;;
32800;SDS011;40572;45.552;12.072;2022-12-10T16:08:32;23.47;;;17.45;;
32800;SDS011;40572;45.552;12.072;2022-12-10T16:11:00;22.63;;;17.37;;
32800;SDS011;40572;45.552;12.072;2022-12-10T16:13:30;25.57;;;18.67;;
32800;SDS011;40572;45.552;12.072;2022-12-10T16:16:02;25.30;;;18.57;;
32800;SDS011;40572;45.552;12.072;2022-12-10T16:18:25;30.43;;;19.17;;
32800;SDS011;40572;45.552;12.072;2022-12-10T16:20:51;26.82;;;18.23;;
32800;SDS011;40572;45.552;12.072;2022-12-10T16:23:17;26.68;;;18.90;;
32800;SDS011;40572;45.552;12.072;2022-12-10T16:25:44;31.90;;;20.57;;
32800;SDS011;40572;45.552;12.072;2022-12-10T16:28:12;28.97;;;18.27;;
32800;SDS011;40572;45.552;12.072;2022-12-10T16:30:42;29.13;;;19.80;;
32800;SDS011;40572;45.552;12.072;2022-12-10T16:33:18;30.32;;;19.80;;
32800;SDS011;40572;45.552;12.072;2022-12-10T16:35:44;28.65;;;19.42;;